Tenacia — ICGA — position and weather

sailwx.info

Track history (hours):
 
Tides and Currents Weather Stations Pressure Air Temp Water Temp Dewpoint Dewpoint Depression Visibility Wind Speed Wind Dir Waves Ship Positions

Tenacia

Last reported at 2018-Jan-22 12:11 UTC. Time now 2018-Jan-22 15:56 UTC.
Position N 39°29' E 002°22'.

Length 199 m; draft 6 m.

Type: Passenger vessel. MMSI: 247230200.

Date/timePositionNaut miles runAvg speedWind from/ knotsBaromVisibWave heightAir tempDewpointWater temp
2018-Jan-22 12:11N 39°29' E 002°22'419.7
2018-Jan-22 12:00N 39°27' E 002°26'815.2
2018-Jan-22 11:31N 39°29' E 002°36'4 8.4
2018-Jan-22 11:00N 39°33' E 002°38'0 0.0
2018-Jan-22 10:30N 39°33' E 002°38'0 0.0
2018-Jan-22 10:00N 39°33' E 002°38'0 0.0
2018-Jan-22 09:29N 39°33' E 002°38'0 0.0
2018-Jan-22 08:59N 39°33' E 002°38'0 0.0
2018-Jan-22 07:26N 39°33' E 002°38'0 0.0
2018-Jan-22 06:58N 39°33' E 002°38'0 0.0
2018-Jan-22 06:28N 39°33' E 002°38'0 0.0
2018-Jan-22 05:58N 39°33' E 002°38'1 2.8
2018-Jan-22 05:30N 39°32' E 002°39'918.0
2018-Jan-22 05:00N 39°25' E 002°32'9718.0
2018-Jan-21 23:35N 41°00' E 002°06'219.2
2018-Jan-21 23:30N 41°02' E 002°07'918.9
2018-Jan-21 23:00N 41°10' E 002°11'918.8
2018-Jan-21 22:31N 41°20' E 002°13'3 0.2
2018-Jan-21 06:29N 41°22' E 002°11'4 7.8
2018-Jan-21 06:00N 41°19' E 002°14'1019.6
2018-Jan-21 05:30N 41°10' E 002°15'10218.1
2018-Jan-20 23:51N 39°28' E 002°23'617.6
2018-Jan-20 23:30N 39°26' E 002°31'713.5
2018-Jan-20 23:00N 39°30' E 002°37'3 4.9
2018-Jan-20 22:26N 39°33' E 002°38'0 0.0
2018-Jan-20 21:59N 39°33' E 002°38'0 0.0
2018-Jan-20 21:29N 39°33' E 002°38'0 0.0
2018-Jan-20 20:59N 39°33' E 002°38'0 0.0
2018-Jan-20 20:28N 39°33' E 002°38'0 0.0
2018-Jan-20 19:58N 39°33' E 002°38'0 0.0
2018-Jan-20 19:28N 39°33' E 002°38'0 0.0
2018-Jan-20 18:58N 39°33' E 002°38'0 0.0
2018-Jan-20 18:28N 39°33' E 002°38'0 0.0
2018-Jan-20 18:00N 39°33' E 002°38'0 0.0
2018-Jan-20 17:30N 39°33' E 002°38'0 0.0
2018-Jan-20 17:00N 39°33' E 002°38'0 0.0
2018-Jan-20 16:30N 39°33' E 002°38'0 0.0
2018-Jan-20 16:00N 39°33' E 002°38'0 0.0
2018-Jan-20 15:29N 39°33' E 002°38'0 0.0
2018-Jan-20 14:59N 39°33' E 002°38'0 0.0
2018-Jan-20 14:26N 39°33' E 002°38'0 0.0
2018-Jan-20 13:59N 39°33' E 002°38'0 0.0
2018-Jan-20 13:28N 39°33' E 002°38'0 0.0
2018-Jan-20 12:58N 39°33' E 002°38'0 0.0
2018-Jan-20 12:28N 39°33' E 002°38'0 0.0
2018-Jan-20 11:58N 39°33' E 002°38'0 0.0
2018-Jan-20 11:28N 39°33' E 002°38'0 0.0
2018-Jan-20 11:00N 39°33' E 002°38'0 0.0
2018-Jan-20 10:30N 39°33' E 002°38'0 0.0
2018-Jan-20 10:00N 39°33' E 002°38'0 0.0
2018-Jan-20 09:30N 39°33' E 002°38'0 0.0
2018-Jan-20 09:00N 39°33' E 002°38'0 0.0
2018-Jan-20 08:29N 39°33' E 002°38'0 0.0
2018-Jan-20 07:59N 39°33' E 002°38'0 0.0
2018-Jan-20 07:29N 39°33' E 002°38'0 0.0
2018-Jan-20 06:59N 39°33' E 002°38'0 0.0
2018-Jan-20 06:25N 39°33' E 002°38'0 0.0
2018-Jan-20 05:58N 39°33' E 002°38'0 0.9
2018-Jan-20 05:30N 39°33' E 002°38'612.3
2018-Jan-20 05:00N 39°28' E 002°34'9417.0
2018-Jan-19 23:29N 41°00' E 002°14'918.9
2018-Jan-19 23:01N 41°09' E 002°14'918.8
2018-Jan-19 22:31N 41°19' E 002°14'4 1.0
2018-Jan-19 18:13N 41°22' E 002°11'1 4.8
2018-Jan-19 18:00N 41°21' E 002°11'714.9
2018-Jan-19 17:30N 41°14' E 002°15'1020.0
2018-Jan-19 17:00N 41°04' E 002°15'9619.2
2018-Jan-19 12:00N 39°28' E 002°25'815.4
2018-Jan-19 11:30N 39°29' E 002°35'5 9.2
2018-Jan-19 10:58N 39°33' E 002°38'0 0.0
2018-Jan-19 10:28N 39°33' E 002°38'0 0.0
2018-Jan-19 09:58N 39°33' E 002°38'0 0.0
2018-Jan-19 09:30N 39°33' E 002°38'0 0.0
2018-Jan-19 09:00N 39°33' E 002°38'0 0.0
2018-Jan-19 08:30N 39°33' E 002°38'0 0.0
2018-Jan-19 08:00N 39°33' E 002°38'1 0.3
2018-Jan-19 05:24N 39°33' E 002°39'615.5
2018-Jan-19 05:00N 39°28' E 002°34'9817.1
2018-Jan-18 23:15N 41°05' E 002°14'519.6
2018-Jan-18 23:00N 41°10' E 002°14'918.6
2018-Jan-18 22:30N 41°19' E 002°14'4 1.0
2018-Jan-18 18:17N 41°22' E 002°11'1 5.0
2018-Jan-18 18:01N 41°21' E 002°12'714.9
2018-Jan-18 17:30N 41°14' E 002°14'1019.6
2018-Jan-18 16:59N 41°04' E 002°15'9619.3
2018-Jan-18 12:02N 39°28' E 002°25'120.0
2018-Jan-18 12:00N 39°28' E 002°26'815.5
2018-Jan-18 11:30N 39°30' E 002°36'4 6.9
2018-Jan-18 10:58N 39°33' E 002°38'0 0.0
2018-Jan-18 10:30N 39°33' E 002°38'0 0.0
2018-Jan-18 10:00N 39°33' E 002°38'0 0.0
2018-Jan-18 09:30N 39°33' E 002°38'0 0.0
2018-Jan-18 09:00N 39°33' E 002°38'0 0.0
2018-Jan-18 08:30N 39°33' E 002°38'0 0.0
2018-Jan-18 07:59N 39°33' E 002°38'0 0.0
2018-Jan-18 07:26N 39°33' E 002°38'0 0.0
2018-Jan-18 06:59N 39°33' E 002°38'0 0.0
2018-Jan-18 06:29N 39°33' E 002°38'0 0.0
2018-Jan-18 05:58N 39°33' E 002°38'0 0.9
2018-Jan-18 05:30N 39°33' E 002°38'713.8
2018-Jan-18 05:00N 39°27' E 002°34'  
Track history (hours):
 
Tides and Currents Weather Stations Pressure Air Temp Water Temp Dewpoint Dewpoint Depression Visibility Wind Speed Wind Dir Waves Ship Positions

Tenacia

Last reported at 2018-Jan-22 12:11 UTC. Time now 2018-Jan-22 15:56 UTC.
Position N 39°29' E 002°22'.

Length 199 m; draft 6 m.

Type: Passenger vessel. MMSI: 247230200.

Date/timePositionNaut miles runAvg speedWind from/ knotsBaromVisibWave heightAir tempDewpointWater temp
2018-Jan-22 12:11N 39°29' E 002°22'419.7
2018-Jan-22 12:00N 39°27' E 002°26'815.2
2018-Jan-22 11:31N 39°29' E 002°36'4 8.4
2018-Jan-22 11:00N 39°33' E 002°38'0 0.0
2018-Jan-22 10:30N 39°33' E 002°38'0 0.0
2018-Jan-22 10:00N 39°33' E 002°38'0 0.0
2018-Jan-22 09:29N 39°33' E 002°38'0 0.0
2018-Jan-22 08:59N 39°33' E 002°38'0 0.0
2018-Jan-22 07:26N 39°33' E 002°38'0 0.0
2018-Jan-22 06:58N 39°33' E 002°38'0 0.0
2018-Jan-22 06:28N 39°33' E 002°38'0 0.0
2018-Jan-22 05:58N 39°33' E 002°38'1 2.8
2018-Jan-22 05:30N 39°32' E 002°39'918.0
2018-Jan-22 05:00N 39°25' E 002°32'9718.0
2018-Jan-21 23:35N 41°00' E 002°06'219.2
2018-Jan-21 23:30N 41°02' E 002°07'918.9
2018-Jan-21 23:00N 41°10' E 002°11'918.8
2018-Jan-21 22:31N 41°20' E 002°13'3 0.2
2018-Jan-21 06:29N 41°22' E 002°11'4 7.8
2018-Jan-21 06:00N 41°19' E 002°14'1019.6
2018-Jan-21 05:30N 41°10' E 002°15'10218.1
2018-Jan-20 23:51N 39°28' E 002°23'617.6
2018-Jan-20 23:30N 39°26' E 002°31'713.5
2018-Jan-20 23:00N 39°30' E 002°37'3 4.9
2018-Jan-20 22:26N 39°33' E 002°38'0 0.0
2018-Jan-20 21:59N 39°33' E 002°38'0 0.0
2018-Jan-20 21:29N 39°33' E 002°38'0 0.0
2018-Jan-20 20:59N 39°33' E 002°38'0 0.0
2018-Jan-20 20:28N 39°33' E 002°38'0 0.0
2018-Jan-20 19:58N 39°33' E 002°38'0 0.0
2018-Jan-20 19:28N 39°33' E 002°38'0 0.0
2018-Jan-20 18:58N 39°33' E 002°38'0 0.0
2018-Jan-20 18:28N 39°33' E 002°38'0 0.0
2018-Jan-20 18:00N 39°33' E 002°38'0 0.0
2018-Jan-20 17:30N 39°33' E 002°38'0 0.0
2018-Jan-20 17:00N 39°33' E 002°38'0 0.0
2018-Jan-20 16:30N 39°33' E 002°38'0 0.0
2018-Jan-20 16:00N 39°33' E 002°38'0 0.0
2018-Jan-20 15:29N 39°33' E 002°38'0 0.0
2018-Jan-20 14:59N 39°33' E 002°38'0 0.0
2018-Jan-20 14:26N 39°33' E 002°38'0 0.0
2018-Jan-20 13:59N 39°33' E 002°38'0 0.0
2018-Jan-20 13:28N 39°33' E 002°38'0 0.0
2018-Jan-20 12:58N 39°33' E 002°38'0 0.0
2018-Jan-20 12:28N 39°33' E 002°38'0 0.0
2018-Jan-20 11:58N 39°33' E 002°38'0 0.0
2018-Jan-20 11:28N 39°33' E 002°38'0 0.0
2018-Jan-20 11:00N 39°33' E 002°38'0 0.0
2018-Jan-20 10:30N 39°33' E 002°38'0 0.0
2018-Jan-20 10:00N 39°33' E 002°38'0 0.0
2018-Jan-20 09:30N 39°33' E 002°38'0 0.0
2018-Jan-20 09:00N 39°33' E 002°38'0 0.0
2018-Jan-20 08:29N 39°33' E 002°38'0 0.0
2018-Jan-20 07:59N 39°33' E 002°38'0 0.0
2018-Jan-20 07:29N 39°33' E 002°38'0 0.0
2018-Jan-20 06:59N 39°33' E 002°38'0 0.0
2018-Jan-20 06:25N 39°33' E 002°38'0 0.0
2018-Jan-20 05:58N 39°33' E 002°38'0 0.9
2018-Jan-20 05:30N 39°33' E 002°38'612.3
2018-Jan-20 05:00N 39°28' E 002°34'9417.0
2018-Jan-19 23:29N 41°00' E 002°14'918.9
2018-Jan-19 23:01N 41°09' E 002°14'918.8
2018-Jan-19 22:31N 41°19' E 002°14'4 1.0
2018-Jan-19 18:13N 41°22' E 002°11'1 4.8
2018-Jan-19 18:00N 41°21' E 002°11'714.9
2018-Jan-19 17:30N 41°14' E 002°15'1020.0
2018-Jan-19 17:00N 41°04' E 002°15'9619.2
2018-Jan-19 12:00N 39°28' E 002°25'815.4
2018-Jan-19 11:30N 39°29' E 002°35'5 9.2
2018-Jan-19 10:58N 39°33' E 002°38'0 0.0
2018-Jan-19 10:28N 39°33' E 002°38'0 0.0
2018-Jan-19 09:58N 39°33' E 002°38'0 0.0
2018-Jan-19 09:30N 39°33' E 002°38'0 0.0
2018-Jan-19 09:00N 39°33' E 002°38'0 0.0
2018-Jan-19 08:30N 39°33' E 002°38'0 0.0
2018-Jan-19 08:00N 39°33' E 002°38'1 0.3
2018-Jan-19 05:24N 39°33' E 002°39'615.5
2018-Jan-19 05:00N 39°28' E 002°34'9817.1
2018-Jan-18 23:15N 41°05' E 002°14'519.6
2018-Jan-18 23:00N 41°10' E 002°14'918.6
2018-Jan-18 22:30N 41°19' E 002°14'4 1.0
2018-Jan-18 18:17N 41°22' E 002°11'1 5.0
2018-Jan-18 18:01N 41°21' E 002°12'714.9
2018-Jan-18 17:30N 41°14' E 002°14'1019.6
2018-Jan-18 16:59N 41°04' E 002°15'9619.3
2018-Jan-18 12:02N 39°28' E 002°25'120.0
2018-Jan-18 12:00N 39°28' E 002°26'815.5
2018-Jan-18 11:30N 39°30' E 002°36'4 6.9
2018-Jan-18 10:58N 39°33' E 002°38'0 0.0
2018-Jan-18 10:30N 39°33' E 002°38'0 0.0
2018-Jan-18 10:00N 39°33' E 002°38'0 0.0
2018-Jan-18 09:30N 39°33' E 002°38'0 0.0
2018-Jan-18 09:00N 39°33' E 002°38'0 0.0
2018-Jan-18 08:30N 39°33' E 002°38'0 0.0
2018-Jan-18 07:59N 39°33' E 002°38'0 0.0
2018-Jan-18 07:26N 39°33' E 002°38'0 0.0
2018-Jan-18 06:59N 39°33' E 002°38'0 0.0
2018-Jan-18 06:29N 39°33' E 002°38'0 0.0
2018-Jan-18 05:58N 39°33' E 002°38'0 0.9
2018-Jan-18 05:30N 39°33' E 002°38'713.8
2018-Jan-18 05:00N 39°27' E 002°34'  

Dump ship's entire track history